createdAt,value
2023-01-23T00:01:46.966Z,30.23
2023-01-23T00:04:32.513Z,29.13
2023-01-23T00:07:18.007Z,27.50
2023-01-23T00:10:03.741Z,29.80
2023-01-23T00:12:49.154Z,30.98
2023-01-23T00:15:34.530Z,29.48
2023-01-23T00:18:19.764Z,28.52
2023-01-23T00:21:11.033Z,31.92
2023-01-23T00:23:59.060Z,30.90
2023-01-23T00:26:44.608Z,30.38
2023-01-23T00:29:30.015Z,32.30
2023-01-23T00:32:15.548Z,30.90
2023-01-23T00:35:01.087Z,30.95
2023-01-23T00:37:46.486Z,30.70
2023-01-23T00:40:31.790Z,33.58
2023-01-23T00:43:17.322Z,28.70
2023-01-23T00:46:02.955Z,37.08
2023-01-23T00:48:48.329Z,31.67
2023-01-23T00:51:34.196Z,28.98
2023-01-23T00:54:21.220Z,27.58
2023-01-23T00:57:09.792Z,30.88
2023-01-23T00:59:54.947Z,35.95
2023-01-23T01:02:40.634Z,37.38
2023-01-23T01:05:27.491Z,34.03
2023-01-23T01:08:12.827Z,34.13
2023-01-23T01:10:58.313Z,32.88
2023-01-23T01:13:45.277Z,30.58
2023-01-23T01:16:30.607Z,34.47
2023-01-23T01:19:19.010Z,34.03
2023-01-23T01:22:04.061Z,32.83
2023-01-23T01:24:49.622Z,33.63
2023-01-23T01:27:35.089Z,33.55
2023-01-23T01:30:21.803Z,33.17
2023-01-23T01:33:08.042Z,35.58
2023-01-23T01:35:56.103Z,32.10
2023-01-23T01:38:41.482Z,36.72
2023-01-23T01:41:27.134Z,33.28
2023-01-23T01:44:21.504Z,34.30
2023-01-23T01:47:07.929Z,36.15
2023-01-23T01:49:58.984Z,36.28
2023-01-23T01:52:44.920Z,35.95
2023-01-23T01:55:30.671Z,34.70
2023-01-23T01:58:16.223Z,35.55
2023-01-23T02:01:01.552Z,36.20
2023-01-23T02:03:49.075Z,32.55
2023-01-23T02:06:34.465Z,34.90
2023-01-23T02:09:24.989Z,35.25
2023-01-23T02:12:10.322Z,36.55
2023-01-23T02:14:55.638Z,34.50
2023-01-23T02:17:41.796Z,34.40
2023-01-23T02:20:28.630Z,33.17
2023-01-23T02:23:45.205Z,36.60
2023-01-23T02:26:40.273Z,37.17
2023-01-23T02:29:26.999Z,32.35
2023-01-23T02:32:14.219Z,35.40
2023-01-23T02:35:04.539Z,36.90
2023-01-23T02:37:54.513Z,36.10
2023-01-23T02:40:42.533Z,34.30
2023-01-23T02:43:35.070Z,40.28
2023-01-23T02:46:21.865Z,40.15
2023-01-23T02:49:07.524Z,34.65
2023-01-23T02:51:54.085Z,34.83
2023-01-23T02:54:40.604Z,35.15
2023-01-23T02:57:26.174Z,39.22
2023-01-23T03:00:22.754Z,36.13
2023-01-23T03:03:09.256Z,39.08
2023-01-23T03:05:55.642Z,35.95
2023-01-23T03:08:47.342Z,37.85
2023-01-23T03:11:32.797Z,35.72
2023-01-23T03:14:21.905Z,37.03
2023-01-23T03:17:07.484Z,40.63
2023-01-23T03:19:57.482Z,34.97
2023-01-23T03:22:44.667Z,38.30
2023-01-23T03:25:29.897Z,38.42
2023-01-23T03:28:34.262Z,36.20
2023-01-23T03:31:19.517Z,36.67
2023-01-23T03:34:04.954Z,34.35
2023-01-23T03:36:51.729Z,38.95
2023-01-23T03:39:55.894Z,33.25
2023-01-23T03:42:41.409Z,36.35
2023-01-23T03:45:28.844Z,39.25
2023-01-23T03:48:14.663Z,35.15
2023-01-23T03:51:01.509Z,32.10
2023-01-23T03:53:49.398Z,36.80
2023-01-23T03:56:34.980Z,40.13
2023-01-23T03:59:20.013Z,32.75
2023-01-23T04:02:07.594Z,40.38
2023-01-23T04:04:53.059Z,36.53
2023-01-23T04:07:38.603Z,34.50
2023-01-23T04:10:24.129Z,34.40
2023-01-23T04:13:13.688Z,34.97
2023-01-23T04:16:01.043Z,37.47
2023-01-23T04:18:46.192Z,35.03
2023-01-23T04:21:31.689Z,38.13
2023-01-23T04:24:17.672Z,33.58
2023-01-23T04:27:02.796Z,32.40
2023-01-23T04:29:48.409Z,36.78
2023-01-23T04:32:33.693Z,29.85
2023-01-23T04:35:19.199Z,36.83
2023-01-23T04:38:04.658Z,36.75
2023-01-23T04:40:50.803Z,36.13
2023-01-23T04:43:36.669Z,36.83
2023-01-23T04:46:25.874Z,37.13
2023-01-23T04:49:16.789Z,37.15
2023-01-23T04:52:02.684Z,36.55
2023-01-23T04:54:51.085Z,38.85
2023-01-23T04:57:36.274Z,39.83
2023-01-23T05:00:31.404Z,37.47
2023-01-23T05:03:18.639Z,35.55
2023-01-23T05:06:06.623Z,39.63
2023-01-23T05:08:52.599Z,39.05
2023-01-23T05:11:43.756Z,32.78
2023-01-23T05:14:31.419Z,36.08
2023-01-23T05:17:16.791Z,34.35
2023-01-23T05:20:10.010Z,34.38
2023-01-23T05:22:58.463Z,41.47
2023-01-23T05:25:55.102Z,37.00
2023-01-23T05:28:41.300Z,38.65
2023-01-23T05:31:26.818Z,35.78
2023-01-23T05:34:32.676Z,37.58
2023-01-23T05:37:25.297Z,41.97
2023-01-23T05:40:13.899Z,35.50
2023-01-23T05:43:37.117Z,38.63
2023-01-23T05:46:45.873Z,37.65
2023-01-23T05:49:31.862Z,38.00
2023-01-23T05:52:18.267Z,35.00
2023-01-23T05:55:04.274Z,38.25
2023-01-23T05:57:51.133Z,40.28
2023-01-23T06:00:56.210Z,39.60
2023-01-23T06:04:00.270Z,42.88
2023-01-23T06:06:55.185Z,38.80
2023-01-23T06:09:42.539Z,40.80
2023-01-23T06:12:28.787Z,40.20
2023-01-23T06:15:14.072Z,43.30
2023-01-23T06:17:59.574Z,41.30
2023-01-23T06:20:45.634Z,40.90
2023-01-23T06:23:31.480Z,44.15
2023-01-23T06:26:18.491Z,41.75
2023-01-23T06:29:04.137Z,39.67
2023-01-23T06:31:49.495Z,41.25
2023-01-23T06:34:36.692Z,41.47
2023-01-23T06:37:23.561Z,39.25
2023-01-23T06:40:13.062Z,40.25
2023-01-23T06:43:00.183Z,38.80
2023-01-23T06:45:46.470Z,39.03
2023-01-23T06:48:31.840Z,42.17
2023-01-23T06:51:18.270Z,43.22
2023-01-23T06:54:05.854Z,43.25
2023-01-23T06:56:51.681Z,42.60
2023-01-23T06:59:38.277Z,38.78
2023-01-23T07:05:13.778Z,36.63
2023-01-23T07:08:04.959Z,38.08
2023-01-23T07:10:51.256Z,36.38
2023-01-23T07:13:36.482Z,41.33
2023-01-23T07:16:22.807Z,42.03
2023-01-23T07:19:08.193Z,41.20
2023-01-23T07:21:56.297Z,40.08
2023-01-23T07:24:41.819Z,45.13
2023-01-23T07:27:27.591Z,37.85
2023-01-23T07:30:13.605Z,41.80
2023-01-23T07:32:59.187Z,41.83
2023-01-23T07:35:44.284Z,38.15
2023-01-23T07:38:29.468Z,38.83
2023-01-23T07:41:14.884Z,41.15
2023-01-23T07:44:00.211Z,42.72
2023-01-23T07:46:47.009Z,37.83
2023-01-23T07:49:32.227Z,39.65
2023-01-23T07:52:17.474Z,39.92
2023-01-23T07:55:03.627Z,37.65
2023-01-23T07:57:49.012Z,37.58
2023-01-23T08:00:34.417Z,40.47
2023-01-23T08:03:20.846Z,43.90
2023-01-23T08:06:06.813Z,41.10
2023-01-23T08:08:52.307Z,42.50
2023-01-23T08:11:37.443Z,46.45
2023-01-23T08:14:22.894Z,44.17
2023-01-23T08:17:07.964Z,41.55
2023-01-23T08:19:53.283Z,40.50
2023-01-23T08:22:40.786Z,45.03
2023-01-23T08:25:26.075Z,41.85
2023-01-23T08:28:11.251Z,39.60
2023-01-23T08:31:01.289Z,42.30
2023-01-23T08:33:47.091Z,42.83
2023-01-23T08:36:32.777Z,41.10
2023-01-23T08:39:19.991Z,45.00
2023-01-23T08:42:05.111Z,45.05
2023-01-23T08:44:50.393Z,46.47
2023-01-23T08:47:36.892Z,46.20
2023-01-23T08:50:22.873Z,45.45
2023-01-23T08:53:08.527Z,39.78
2023-01-23T08:55:53.969Z,47.80
2023-01-23T08:58:39.276Z,46.80
2023-01-23T09:01:26.691Z,43.95
2023-01-23T09:04:12.115Z,48.97
2023-01-23T09:06:57.341Z,41.92
2023-01-23T09:09:42.806Z,46.50
2023-01-23T09:12:28.157Z,43.70
2023-01-23T09:15:13.607Z,42.95
2023-01-23T09:17:58.773Z,40.08
2023-01-23T09:20:44.216Z,45.45
2023-01-23T09:23:29.270Z,47.78
2023-01-23T09:26:15.205Z,44.53
2023-01-23T09:29:01.501Z,44.35
2023-01-23T09:31:47.170Z,44.60
2023-01-23T09:34:32.334Z,43.40
2023-01-23T09:37:18.045Z,41.42
2023-01-23T09:40:03.622Z,42.40
2023-01-23T09:42:50.092Z,46.55
2023-01-23T09:45:38.118Z,48.85
2023-01-23T09:48:31.671Z,43.78
2023-01-23T09:51:22.393Z,42.20
2023-01-23T09:54:18.195Z,45.13
2023-01-23T09:57:13.766Z,44.25
2023-01-23T10:00:22.341Z,41.30
2023-01-23T10:03:13.183Z,40.45
2023-01-23T10:06:20.915Z,41.83
2023-01-23T10:09:17.424Z,41.22
2023-01-23T10:12:11.723Z,39.53
2023-01-23T10:15:05.882Z,44.40
2023-01-23T10:18:00.290Z,51.40
2023-01-23T10:21:07.015Z,41.58
2023-01-23T10:23:59.639Z,41.47
2023-01-23T10:26:47.641Z,40.78
2023-01-23T10:29:38.841Z,39.58
2023-01-23T10:32:26.750Z,41.80
2023-01-23T10:35:24.883Z,41.17
2023-01-23T10:38:20.853Z,40.72
2023-01-23T10:41:14.529Z,46.78
2023-01-23T10:44:00.517Z,41.95
2023-01-23T10:46:54.011Z,43.22
2023-01-23T10:49:45.339Z,39.80
2023-01-23T10:52:35.809Z,43.33
2023-01-23T10:55:21.622Z,39.38
2023-01-23T10:58:31.513Z,40.75
2023-01-23T11:01:34.497Z,40.97
2023-01-23T11:04:23.917Z,40.17
2023-01-23T11:07:22.989Z,40.10
2023-01-23T11:10:07.933Z,40.87
2023-01-23T11:12:55.390Z,40.65
2023-01-23T11:15:43.537Z,38.72
2023-01-23T11:18:33.063Z,41.08
2023-01-23T11:21:29.630Z,42.55
2023-01-23T11:24:39.847Z,42.50
2023-01-23T11:27:31.068Z,38.60
2023-01-23T11:30:38.632Z,44.22
2023-01-23T11:33:26.819Z,36.50
2023-01-23T11:36:29.915Z,45.92
2023-01-23T11:39:41.084Z,40.10
2023-01-23T11:42:28.726Z,40.83
2023-01-23T11:45:35.833Z,45.30
2023-01-23T11:48:24.572Z,39.08
2023-01-23T11:51:18.778Z,41.30
2023-01-23T11:54:22.939Z,38.60
2023-01-23T11:57:12.722Z,43.42
2023-01-23T12:00:07.374Z,33.35
2023-01-23T12:03:05.995Z,39.38
2023-01-23T12:06:20.340Z,39.30
2023-01-23T12:09:20.162Z,42.38
2023-01-23T12:12:27.779Z,42.10
2023-01-23T12:15:26.432Z,36.45
2023-01-23T12:18:46.373Z,40.35
2023-01-23T12:21:49.764Z,34.97
2023-01-23T12:24:58.371Z,38.42
2023-01-23T12:27:47.323Z,35.83
2023-01-23T12:31:00.580Z,34.42
2023-01-23T12:34:09.079Z,28.90
2023-01-23T12:37:46.238Z,31.38
2023-01-23T12:40:37.679Z,32.05
2023-01-23T12:43:50.460Z,31.17
2023-01-23T12:46:50.868Z,29.83
2023-01-23T12:49:42.439Z,27.30
2023-01-23T12:52:35.500Z,27.05
2023-01-23T12:55:30.704Z,26.10
2023-01-23T12:58:19.005Z,29.73
2023-01-23T13:01:20.427Z,29.25
2023-01-23T13:04:17.479Z,23.77
2023-01-23T13:07:14.126Z,26.02
2023-01-23T13:10:53.873Z,26.25
2023-01-23T13:13:40.449Z,27.42
2023-01-23T13:16:30.303Z,29.05
2023-01-23T13:19:42.227Z,26.00
2023-01-23T13:22:32.679Z,25.63
2023-01-23T13:25:19.827Z,23.92
2023-01-23T13:28:46.172Z,24.90
2023-01-23T13:31:47.149Z,24.48
2023-01-23T13:34:36.023Z,25.08
2023-01-23T13:37:30.828Z,20.00
2023-01-23T13:40:20.060Z,27.60
2023-01-23T13:43:46.771Z,24.67
2023-01-23T13:46:35.184Z,30.17
2023-01-23T14:21:57.655Z,25.30
2023-01-23T14:24:46.343Z,23.20
2023-01-23T14:27:51.331Z,26.80
2023-01-23T14:30:37.704Z,24.95
2023-01-23T14:33:23.571Z,25.20
2023-01-23T14:36:19.612Z,24.08
2023-01-23T14:40:09.730Z,25.50
2023-01-23T14:43:02.123Z,26.27
2023-01-23T14:45:49.637Z,28.45
2023-01-23T14:48:41.579Z,26.23
2023-01-23T14:51:27.723Z,23.77
2023-01-23T14:54:22.963Z,24.65
2023-01-23T14:57:10.247Z,21.42
2023-01-23T14:59:57.595Z,22.13
2023-01-23T15:02:45.748Z,22.08
2023-01-23T15:05:32.831Z,21.60
2023-01-23T15:08:30.617Z,26.98
2023-01-23T15:11:24.294Z,22.88
2023-01-23T15:14:42.140Z,22.42
2023-01-23T15:17:28.282Z,23.95
2023-01-23T15:20:41.598Z,28.00
2023-01-23T15:23:33.621Z,23.63
2023-01-23T15:26:24.490Z,24.50
2023-01-23T15:29:10.022Z,22.20
2023-01-23T15:31:57.114Z,23.52
2023-01-23T15:34:52.230Z,20.45
2023-01-23T15:37:37.583Z,24.88
2023-01-23T15:40:27.566Z,21.67
2023-01-23T15:43:19.008Z,19.55
2023-01-23T15:46:04.373Z,21.73
2023-01-23T15:48:49.455Z,22.85
2023-01-23T15:51:36.355Z,22.65
2023-01-23T15:54:36.206Z,25.05
2023-01-23T15:57:21.401Z,25.25
2023-01-23T16:00:24.759Z,18.58
2023-01-23T16:03:10.783Z,23.73
2023-01-23T16:05:56.266Z,23.08
2023-01-23T16:08:41.353Z,22.73
2023-01-23T16:11:32.616Z,23.92
2023-01-23T16:14:19.277Z,26.38
2023-01-23T16:17:15.987Z,23.77
2023-01-23T16:20:02.511Z,22.40
2023-01-23T16:22:54.570Z,26.30
2023-01-23T16:25:44.569Z,22.63
2023-01-23T16:28:32.466Z,28.33
2023-01-23T16:31:18.033Z,24.08
2023-01-23T16:34:03.662Z,27.52
2023-01-23T16:36:57.892Z,25.27
2023-01-23T16:39:45.192Z,23.88
2023-01-23T16:42:30.876Z,22.85
2023-01-23T16:45:19.315Z,22.00
2023-01-23T16:48:18.224Z,26.05
2023-01-23T16:51:21.869Z,22.95
2023-01-23T16:54:18.840Z,22.77
2023-01-23T16:57:04.480Z,23.17
2023-01-23T16:59:50.445Z,22.70
2023-01-23T17:02:35.857Z,24.60
2023-01-23T17:05:21.670Z,24.55
2023-01-23T17:08:18.313Z,21.02
2023-01-23T17:11:04.927Z,22.20
2023-01-23T17:13:59.401Z,24.92
2023-01-23T17:16:45.494Z,24.02
2023-01-23T17:19:33.928Z,27.00
2023-01-23T17:22:26.058Z,21.25
2023-01-23T17:25:20.907Z,23.10
2023-01-23T17:28:12.764Z,22.05
2023-01-23T17:31:00.645Z,25.48
2023-01-23T17:33:46.249Z,23.60
2023-01-23T17:36:32.334Z,21.15
2023-01-23T17:39:17.550Z,23.23
2023-01-23T17:42:03.192Z,26.38
2023-01-23T17:44:48.836Z,22.42
2023-01-23T17:47:35.029Z,22.92
2023-01-23T17:50:25.943Z,20.08
2023-01-23T17:53:15.845Z,22.70
2023-01-23T17:56:01.148Z,23.65
2023-01-23T17:58:46.380Z,20.98
2023-01-23T18:01:31.687Z,22.85
2023-01-23T18:04:20.518Z,22.05
2023-01-23T18:07:10.715Z,20.35
2023-01-23T18:09:56.282Z,20.17
2023-01-23T18:12:51.841Z,22.77
2023-01-23T18:15:40.813Z,21.73
2023-01-23T18:18:31.933Z,23.88
2023-01-23T18:21:18.063Z,21.40
2023-01-23T18:24:03.997Z,24.50
2023-01-23T18:27:32.821Z,21.38
2023-01-23T18:30:38.294Z,22.00
2023-01-23T18:33:41.285Z,21.67
2023-01-23T18:36:51.230Z,22.40
2023-01-23T18:39:49.539Z,20.15
2023-01-23T18:42:41.797Z,22.42
2023-01-23T18:45:28.013Z,24.60
2023-01-23T18:48:25.132Z,23.95
2023-01-23T18:51:19.966Z,20.85
2023-01-23T18:54:30.006Z,22.88
2023-01-23T18:57:28.112Z,22.60
2023-01-23T19:00:31.477Z,23.02
2023-01-23T19:03:18.168Z,24.65
2023-01-23T19:06:11.542Z,21.77
2023-01-23T19:08:57.434Z,20.48
2023-01-23T19:12:07.605Z,24.25
2023-01-23T19:15:04.892Z,20.85
2023-01-23T19:18:39.462Z,22.75
2023-01-23T19:21:27.554Z,20.70
2023-01-23T19:24:17.929Z,22.10
2023-01-23T19:27:03.493Z,24.27
2023-01-23T19:29:49.096Z,23.23
2023-01-23T19:32:35.426Z,23.98
2023-01-23T19:35:21.839Z,23.83
2023-01-23T19:38:10.059Z,24.35
2023-01-23T19:40:55.637Z,24.77
2023-01-23T19:43:40.773Z,27.17
2023-01-23T19:46:29.805Z,23.40
2023-01-23T19:49:15.067Z,25.60
2023-01-23T19:52:00.326Z,23.85
2023-01-23T19:54:45.756Z,24.42
2023-01-23T19:57:31.212Z,26.38
2023-01-23T20:00:17.467Z,20.63
2023-01-23T20:03:04.847Z,22.33
2023-01-23T20:05:50.374Z,20.45
2023-01-23T20:08:35.758Z,23.13
2023-01-23T20:11:21.539Z,21.10
2023-01-23T20:14:07.064Z,22.90
2023-01-23T20:16:52.250Z,23.55
2023-01-23T20:19:38.659Z,19.83
2023-01-23T20:22:23.925Z,20.40
2023-01-23T20:25:16.309Z,18.98
2023-01-23T20:28:01.355Z,25.98
2023-01-23T20:30:46.505Z,22.23
2023-01-23T20:33:31.985Z,21.52
2023-01-23T20:36:17.515Z,19.50
2023-01-23T20:39:04.707Z,21.35
2023-01-23T20:41:50.087Z,20.38
2023-01-23T20:44:35.262Z,17.60
2023-01-23T20:47:20.804Z,18.65
2023-01-23T20:50:06.412Z,17.52
2023-01-23T20:53:10.516Z,19.35
2023-01-23T20:56:16.421Z,19.58
2023-01-23T20:59:23.974Z,24.08
2023-01-23T21:02:23.067Z,21.27
2023-01-23T21:05:08.478Z,24.45
2023-01-23T21:07:53.670Z,25.70
2023-01-23T21:10:39.001Z,19.20
2023-01-23T21:13:24.462Z,25.40
2023-01-23T21:16:15.476Z,26.00
2023-01-23T21:19:01.506Z,28.80
2023-01-23T21:21:46.953Z,26.85
2023-01-23T21:24:36.393Z,31.25
2023-01-23T21:27:23.065Z,26.45
2023-01-23T21:30:10.658Z,24.08
2023-01-23T21:32:55.986Z,25.95
2023-01-23T21:35:41.110Z,22.67
2023-01-23T21:38:26.315Z,27.60
2023-01-23T21:41:11.933Z,27.58
2023-01-23T21:43:57.105Z,26.63
2023-01-23T21:46:42.823Z,27.73
2023-01-23T21:49:27.950Z,28.27
2023-01-23T21:52:13.532Z,25.33
2023-01-23T21:54:58.894Z,26.13
2023-01-23T21:57:44.232Z,26.40
2023-01-23T22:00:48.039Z,21.40
2023-01-23T22:03:36.255Z,24.45
2023-01-23T22:06:21.873Z,24.98
2023-01-23T22:09:15.620Z,23.52
2023-01-23T22:12:01.123Z,35.25
2023-01-23T22:14:46.554Z,31.08
2023-01-23T22:17:31.895Z,25.02
2023-01-23T22:20:17.631Z,28.35
2023-01-23T22:23:02.918Z,30.85
2023-01-23T22:25:56.072Z,26.02
2023-01-23T22:28:41.423Z,26.73
2023-01-23T22:31:26.838Z,29.63
2023-01-23T22:34:12.194Z,26.83
2023-01-23T22:36:57.351Z,29.33
2023-01-23T22:39:43.034Z,23.70
2023-01-23T22:42:28.327Z,26.33
2023-01-23T22:45:14.116Z,22.08
2023-01-23T22:47:59.794Z,27.80
2023-01-23T22:50:45.604Z,29.02
2023-01-23T22:53:32.247Z,29.08
2023-01-23T22:56:17.389Z,28.52
2023-01-23T22:59:03.154Z,23.75
2023-01-23T23:01:48.500Z,25.50
2023-01-23T23:04:33.841Z,27.60
2023-01-23T23:07:19.004Z,29.75
2023-01-23T23:10:06.061Z,25.23
2023-01-23T23:12:51.036Z,26.40
2023-01-23T23:15:36.523Z,31.38
2023-01-23T23:18:22.182Z,29.48
2023-01-23T23:21:10.168Z,28.83
2023-01-23T23:23:59.773Z,30.42
2023-01-23T23:26:45.143Z,30.20
2023-01-23T23:29:30.525Z,32.90
2023-01-23T23:32:15.968Z,31.25
2023-01-23T23:35:01.334Z,29.65
2023-01-23T23:37:46.475Z,34.30
2023-01-23T23:40:31.711Z,30.65
2023-01-23T23:43:17.080Z,35.13
2023-01-23T23:46:05.157Z,35.30
2023-01-23T23:48:50.647Z,33.42
2023-01-23T23:51:35.809Z,31.80
2023-01-23T23:54:21.391Z,34.67
2023-01-23T23:57:06.832Z,35.75
2023-01-23T23:59:52.128Z,35.90
